sensor_id;sensor_type;location;lat;lon;timestamp;temperature;humidity
25214;DHT22;13160;51.834;4.706;2022-09-09T00:20:13;16.60;99.90
25214;DHT22;13160;51.834;4.706;2022-09-09T01:12:12;16.40;99.90
25214;DHT22;13160;51.834;4.706;2022-09-09T01:15:23;16.40;99.90
25214;DHT22;13160;51.834;4.706;2022-09-09T01:19:02;16.40;99.90
25214;DHT22;13160;51.834;4.706;2022-09-09T01:30:37;16.40;99.90
25214;DHT22;13160;51.834;4.706;2022-09-09T01:51:07;16.30;99.90
25214;DHT22;13160;51.834;4.706;2022-09-09T01:57:37;16.40;99.90
25214;DHT22;13160;51.834;4.706;2022-09-09T02:24:24;16.30;99.90
25214;DHT22;13160;51.834;4.706;2022-09-09T02:27:34;16.30;99.90
25214;DHT22;13160;51.834;4.706;2022-09-09T02:31:08;16.30;99.90
25214;DHT22;13160;51.834;4.706;2022-09-09T02:35:00;16.30;99.90
25214;DHT22;13160;51.834;4.706;2022-09-09T02:38:56;16.20;99.90
25214;DHT22;13160;51.834;4.706;2022-09-09T02:46:27;16.20;99.90
25214;DHT22;13160;51.834;4.706;2022-09-09T03:21:34;16.20;99.90
25214;DHT22;13160;51.834;4.706;2022-09-09T03:28:02;16.10;99.90
25214;DHT22;13160;51.834;4.706;2022-09-09T04:17:47;15.90;99.90
25214;DHT22;13160;51.834;4.706;2022-09-09T04:26:18;15.90;99.90
25214;DHT22;13160;51.834;4.706;2022-09-09T04:29:15;15.90;99.90
25214;DHT22;13160;51.834;4.706;2022-09-09T04:32:16;16.00;99.90
25214;DHT22;13160;51.834;4.706;2022-09-09T04:35:23;15.90;99.90
25214;DHT22;13160;51.834;4.706;2022-09-09T04:38:40;16.00;99.90
25214;DHT22;13160;51.834;4.706;2022-09-09T04:42:19;15.90;99.90
25214;DHT22;13160;51.834;4.706;2022-09-09T04:48:25;15.90;99.90
25214;DHT22;13160;51.834;4.706;2022-09-09T05:05:27;16.00;99.90
25214;DHT22;13160;51.834;4.706;2022-09-09T05:13:16;16.00;99.90
25214;DHT22;13160;51.834;4.706;2022-09-09T05:15:54;16.00;99.90
25214;DHT22;13160;51.834;4.706;2022-09-09T05:18:29;16.00;99.90
25214;DHT22;13160;51.834;4.706;2022-09-09T05:21:02;16.10;99.90
25214;DHT22;13160;51.834;4.706;2022-09-09T05:23:47;16.10;99.90
25214;DHT22;13160;51.834;4.706;2022-09-09T05:26:21;16.10;99.90
25214;DHT22;13160;51.834;4.706;2022-09-09T05:28:55;16.10;99.90
25214;DHT22;13160;51.834;4.706;2022-09-09T05:32:59;16.10;99.90
25214;DHT22;13160;51.834;4.706;2022-09-09T05:35:28;16.10;99.90
25214;DHT22;13160;51.834;4.706;2022-09-09T05:41:18;16.20;99.90
25214;DHT22;13160;51.834;4.706;2022-09-09T05:44:31;16.10;99.90
25214;DHT22;13160;51.834;4.706;2022-09-09T05:47:01;16.10;99.90
25214;DHT22;13160;51.834;4.706;2022-09-09T05:49:36;16.10;99.90
25214;DHT22;13160;51.834;4.706;2022-09-09T05:52:21;16.20;99.90
25214;DHT22;13160;51.834;4.706;2022-09-09T05:54:53;16.20;99.90
25214;DHT22;13160;51.834;4.706;2022-09-09T05:57:23;16.20;99.90
25214;DHT22;13160;51.834;4.706;2022-09-09T05:59:57;16.20;99.90
25214;DHT22;13160;51.834;4.706;2022-09-09T06:02:26;16.30;99.90
25214;DHT22;13160;51.834;4.706;2022-09-09T06:05:07;16.30;99.90
25214;DHT22;13160;51.834;4.706;2022-09-09T06:07:58;16.30;99.90
25214;DHT22;13160;51.834;4.706;2022-09-09T06:11:01;16.40;99.90
25214;DHT22;13160;51.834;4.706;2022-09-09T06:13:42;16.40;99.90
25214;DHT22;13160;51.834;4.706;2022-09-09T06:16:40;16.40;99.90
25214;DHT22;13160;51.834;4.706;2022-09-09T06:19:42;16.40;99.90
25214;DHT22;13160;51.834;4.706;2022-09-09T06:22:26;16.40;99.90
25214;DHT22;13160;51.834;4.706;2022-09-09T06:25:07;16.50;99.90
25214;DHT22;13160;51.834;4.706;2022-09-09T06:27:42;16.60;99.90
25214;DHT22;13160;51.834;4.706;2022-09-09T06:30:26;16.60;99.90
25214;DHT22;13160;51.834;4.706;2022-09-09T06:33:13;16.70;99.90
25214;DHT22;13160;51.834;4.706;2022-09-09T06:35:56;16.70;99.90
25214;DHT22;13160;51.834;4.706;2022-09-09T06:38:32;16.80;99.90
25214;DHT22;13160;51.834;4.706;2022-09-09T06:41:22;16.80;99.90
25214;DHT22;13160;51.834;4.706;2022-09-09T06:47:08;17.00;99.90
25214;DHT22;13160;51.834;4.706;2022-09-09T06:49:58;17.00;99.90
25214;DHT22;13160;51.834;4.706;2022-09-09T06:52:51;17.10;99.90
25214;DHT22;13160;51.834;4.706;2022-09-09T06:55:46;17.20;99.90
25214;DHT22;13160;51.834;4.706;2022-09-09T06:58:47;17.30;99.90
25214;DHT22;13160;51.834;4.706;2022-09-09T07:02:08;17.40;99.90
25214;DHT22;13160;51.834;4.706;2022-09-09T07:05:10;17.40;99.90
25214;DHT22;13160;51.834;4.706;2022-09-09T07:08:03;17.50;99.90
25214;DHT22;13160;51.834;4.706;2022-09-09T07:10:47;17.60;99.90
25214;DHT22;13160;51.834;4.706;2022-09-09T07:13:32;17.50;99.90
25214;DHT22;13160;51.834;4.706;2022-09-09T07:16:50;17.60;99.90
25214;DHT22;13160;51.834;4.706;2022-09-09T07:23:22;17.70;99.90
25214;DHT22;13160;51.834;4.706;2022-09-09T07:26:19;17.70;99.90
25214;DHT22;13160;51.834;4.706;2022-09-09T07:29:13;17.70;99.90
25214;DHT22;13160;51.834;4.706;2022-09-09T07:32:24;17.70;99.90
25214;DHT22;13160;51.834;4.706;2022-09-09T07:35:23;17.80;99.90
25214;DHT22;13160;51.834;4.706;2022-09-09T07:45:08;17.80;99.90
25214;DHT22;13160;51.834;4.706;2022-09-09T07:48:13;17.80;99.90
25214;DHT22;13160;51.834;4.706;2022-09-09T07:50:50;17.80;99.90
25214;DHT22;13160;51.834;4.706;2022-09-09T07:53:47;17.80;99.90
25214;DHT22;13160;51.834;4.706;2022-09-09T07:57:00;17.80;99.90
25214;DHT22;13160;51.834;4.706;2022-09-09T07:59:37;17.70;99.90
25214;DHT22;13160;51.834;4.706;2022-09-09T08:02:29;17.80;99.90
25214;DHT22;13160;51.834;4.706;2022-09-09T08:05:21;17.80;99.90
25214;DHT22;13160;51.834;4.706;2022-09-09T08:07:59;17.70;99.90
25214;DHT22;13160;51.834;4.706;2022-09-09T08:11:12;17.70;99.90
25214;DHT22;13160;51.834;4.706;2022-09-09T08:14:45;17.80;99.90
25214;DHT22;13160;51.834;4.706;2022-09-09T08:17:32;17.80;99.90
25214;DHT22;13160;51.834;4.706;2022-09-09T08:20:22;17.90;99.90
25214;DHT22;13160;51.834;4.706;2022-09-09T08:23:02;17.90;99.90
25214;DHT22;13160;51.834;4.706;2022-09-09T08:25:36;18.00;99.90
25214;DHT22;13160;51.834;4.706;2022-09-09T08:28:26;18.10;99.90
25214;DHT22;13160;51.834;4.706;2022-09-09T08:31:28;18.10;99.90
25214;DHT22;13160;51.834;4.706;2022-09-09T08:34:17;18.00;99.90
25214;DHT22;13160;51.834;4.706;2022-09-09T08:39:52;18.00;99.90
25214;DHT22;13160;51.834;4.706;2022-09-09T08:42:43;18.10;99.90
25214;DHT22;13160;51.834;4.706;2022-09-09T08:45:53;18.10;99.90
25214;DHT22;13160;51.834;4.706;2022-09-09T08:49:01;18.10;99.90
25214;DHT22;13160;51.834;4.706;2022-09-09T08:52:10;18.10;99.90
25214;DHT22;13160;51.834;4.706;2022-09-09T08:55:29;18.00;99.90
25214;DHT22;13160;51.834;4.706;2022-09-09T08:58:45;18.00;99.90
25214;DHT22;13160;51.834;4.706;2022-09-09T09:02:15;18.10;99.90
25214;DHT22;13160;51.834;4.706;2022-09-09T09:05:09;18.10;99.90
25214;DHT22;13160;51.834;4.706;2022-09-09T09:08:24;18.10;99.90
25214;DHT22;13160;51.834;4.706;2022-09-09T09:11:09;18.20;99.90
25214;DHT22;13160;51.834;4.706;2022-09-09T09:13:45;18.20;99.90
25214;DHT22;13160;51.834;4.706;2022-09-09T09:16:34;18.20;99.90
25214;DHT22;13160;51.834;4.706;2022-09-09T09:19:19;18.20;99.90
25214;DHT22;13160;51.834;4.706;2022-09-09T09:21:59;18.10;99.90
25214;DHT22;13160;51.834;4.706;2022-09-09T09:25:19;18.20;99.90
25214;DHT22;13160;51.834;4.706;2022-09-09T09:28:22;18.20;99.90
25214;DHT22;13160;51.834;4.706;2022-09-09T09:31:32;18.10;99.90
25214;DHT22;13160;51.834;4.706;2022-09-09T09:34:20;18.10;99.90
25214;DHT22;13160;51.834;4.706;2022-09-09T09:41:20;18.20;99.90
25214;DHT22;13160;51.834;4.706;2022-09-09T09:44:26;18.20;99.90
25214;DHT22;13160;51.834;4.706;2022-09-09T09:47:14;18.30;99.90
25214;DHT22;13160;51.834;4.706;2022-09-09T09:49:57;18.40;99.90
25214;DHT22;13160;51.834;4.706;2022-09-09T09:53:17;18.40;99.90
25214;DHT22;13160;51.834;4.706;2022-09-09T09:56:01;18.50;99.90
25214;DHT22;13160;51.834;4.706;2022-09-09T09:58:50;18.60;99.90
25214;DHT22;13160;51.834;4.706;2022-09-09T10:01:49;18.70;99.90
25214;DHT22;13160;51.834;4.706;2022-09-09T10:04:21;18.70;99.90
25214;DHT22;13160;51.834;4.706;2022-09-09T10:06:52;18.70;99.90
25214;DHT22;13160;51.834;4.706;2022-09-09T10:09:27;18.80;99.90
25214;DHT22;13160;51.834;4.706;2022-09-09T10:12:14;18.80;99.90
25214;DHT22;13160;51.834;4.706;2022-09-09T10:15:41;18.90;99.90
25214;DHT22;13160;51.834;4.706;2022-09-09T10:18:42;18.90;99.90
25214;DHT22;13160;51.834;4.706;2022-09-09T10:27:36;18.90;99.90
25214;DHT22;13160;51.834;4.706;2022-09-09T10:34:45;18.90;99.90
25214;DHT22;13160;51.834;4.706;2022-09-09T10:37:58;18.80;99.90
25214;DHT22;13160;51.834;4.706;2022-09-09T10:41:44;18.70;99.90
25214;DHT22;13160;51.834;4.706;2022-09-09T10:44:36;18.60;99.90
25214;DHT22;13160;51.834;4.706;2022-09-09T10:47:44;18.50;99.90
25214;DHT22;13160;51.834;4.706;2022-09-09T10:50:46;18.50;99.90
25214;DHT22;13160;51.834;4.706;2022-09-09T11:00:47;18.30;99.90
25214;DHT22;13160;51.834;4.706;2022-09-09T11:03:37;18.30;99.90
25214;DHT22;13160;51.834;4.706;2022-09-09T11:06:23;18.40;99.90
25214;DHT22;13160;51.834;4.706;2022-09-09T11:09:02;18.40;99.90
25214;DHT22;13160;51.834;4.706;2022-09-09T11:11:49;18.50;99.90
25214;DHT22;13160;51.834;4.706;2022-09-09T11:14:33;18.60;99.90
25214;DHT22;13160;51.834;4.706;2022-09-09T11:17:16;18.70;99.90
25214;DHT22;13160;51.834;4.706;2022-09-09T11:20:10;18.80;99.90
25214;DHT22;13160;51.834;4.706;2022-09-09T11:23:04;18.80;99.90
25214;DHT22;13160;51.834;4.706;2022-09-09T11:25:47;18.90;99.90
25214;DHT22;13160;51.834;4.706;2022-09-09T11:28:53;19.00;99.90
25214;DHT22;13160;51.834;4.706;2022-09-09T11:32:47;19.10;99.90
25214;DHT22;13160;51.834;4.706;2022-09-09T11:44:32;19.20;99.90
25214;DHT22;13160;51.834;4.706;2022-09-09T11:48:25;19.30;99.90
25214;DHT22;13160;51.834;4.706;2022-09-09T11:51:36;19.40;99.90
25214;DHT22;13160;51.834;4.706;2022-09-09T11:55:07;19.50;99.90
25214;DHT22;13160;51.834;4.706;2022-09-09T12:03:45;19.80;99.90
25214;DHT22;13160;51.834;4.706;2022-09-09T12:07:34;19.90;99.90
25214;DHT22;13160;51.834;4.706;2022-09-09T12:10:22;19.90;99.90
25214;DHT22;13160;51.834;4.706;2022-09-09T12:13:24;19.90;99.90
25214;DHT22;13160;51.834;4.706;2022-09-09T12:16:30;19.90;99.90
25214;DHT22;13160;51.834;4.706;2022-09-09T12:19:21;19.90;99.90
25214;DHT22;13160;51.834;4.706;2022-09-09T12:22:30;19.90;99.90
25214;DHT22;13160;51.834;4.706;2022-09-09T12:25:31;19.90;99.90
25214;DHT22;13160;51.834;4.706;2022-09-09T12:31:17;19.90;99.90
25214;DHT22;13160;51.834;4.706;2022-09-09T12:34:08;19.90;99.90
25214;DHT22;13160;51.834;4.706;2022-09-09T12:36:52;19.80;99.90
25214;DHT22;13160;51.834;4.706;2022-09-09T13:06:46;19.40;99.90
25214;DHT22;13160;51.834;4.706;2022-09-09T13:09:16;19.30;99.90
25214;DHT22;13160;51.834;4.706;2022-09-09T13:11:48;19.40;99.90
25214;DHT22;13160;51.834;4.706;2022-09-09T13:14:27;19.40;99.90
25214;DHT22;13160;51.834;4.706;2022-09-09T13:17:18;19.30;99.90
25214;DHT22;13160;51.834;4.706;2022-09-09T13:31:45;19.30;99.90
25214;DHT22;13160;51.834;4.706;2022-09-09T13:34:37;19.50;99.90
25214;DHT22;13160;51.834;4.706;2022-09-09T13:37:24;19.60;99.90
25214;DHT22;13160;51.834;4.706;2022-09-09T13:40:01;19.70;99.90
25214;DHT22;13160;51.834;4.706;2022-09-09T13:42:39;19.80;99.90
25214;DHT22;13160;51.834;4.706;2022-09-09T13:45:18;19.90;99.90
25214;DHT22;13160;51.834;4.706;2022-09-09T13:48:09;20.00;99.90
25214;DHT22;13160;51.834;4.706;2022-09-09T13:50:53;20.00;99.90
25214;DHT22;13160;51.834;4.706;2022-09-09T13:53:30;20.00;99.90
25214;DHT22;13160;51.834;4.706;2022-09-09T13:56:25;20.00;99.90
25214;DHT22;13160;51.834;4.706;2022-09-09T14:19:10;19.70;99.90
25214;DHT22;13160;51.834;4.706;2022-09-09T14:41:59;19.60;99.90
25214;DHT22;13160;51.834;4.706;2022-09-09T14:45:24;19.50;99.90
25214;DHT22;13160;51.834;4.706;2022-09-09T14:48:30;19.60;99.90
25214;DHT22;13160;51.834;4.706;2022-09-09T14:51:23;19.50;99.90
25214;DHT22;13160;51.834;4.706;2022-09-09T14:54:29;19.50;99.90
25214;DHT22;13160;51.834;4.706;2022-09-09T14:57:17;19.50;99.90
25214;DHT22;13160;51.834;4.706;2022-09-09T14:59:50;19.50;99.90
25214;DHT22;13160;51.834;4.706;2022-09-09T15:02:24;19.50;99.90
25214;DHT22;13160;51.834;4.706;2022-09-09T15:05:28;19.50;99.90
25214;DHT22;13160;51.834;4.706;2022-09-09T15:08:25;19.60;99.90
25214;DHT22;13160;51.834;4.706;2022-09-09T15:11:20;19.50;99.90
25214;DHT22;13160;51.834;4.706;2022-09-09T15:17:01;19.60;99.90
25214;DHT22;13160;51.834;4.706;2022-09-09T15:19:40;19.60;99.90
25214;DHT22;13160;51.834;4.706;2022-09-09T15:22:24;19.60;99.90
25214;DHT22;13160;51.834;4.706;2022-09-09T15:25:06;19.60;99.90
25214;DHT22;13160;51.834;4.706;2022-09-09T15:27:44;19.60;99.90
25214;DHT22;13160;51.834;4.706;2022-09-09T15:30:34;19.60;99.90
25214;DHT22;13160;51.834;4.706;2022-09-09T15:33:20;19.60;99.90
25214;DHT22;13160;51.834;4.706;2022-09-09T15:36:28;19.60;99.90
25214;DHT22;13160;51.834;4.706;2022-09-09T15:39:07;19.60;99.90
25214;DHT22;13160;51.834;4.706;2022-09-09T15:41:41;19.70;99.90
25214;DHT22;13160;51.834;4.706;2022-09-09T15:44:18;19.60;99.90
25214;DHT22;13160;51.834;4.706;2022-09-09T15:46:50;19.70;99.90
25214;DHT22;13160;51.834;4.706;2022-09-09T15:49:22;19.70;99.90
25214;DHT22;13160;51.834;4.706;2022-09-09T15:51:56;19.80;99.90
25214;DHT22;13160;51.834;4.706;2022-09-09T15:54:32;19.80;99.90
25214;DHT22;13160;51.834;4.706;2022-09-09T15:57:04;19.80;99.90
25214;DHT22;13160;51.834;4.706;2022-09-09T15:59:33;19.90;99.90
25214;DHT22;13160;51.834;4.706;2022-09-09T16:02:04;19.90;99.90
25214;DHT22;13160;51.834;4.706;2022-09-09T16:04:37;19.90;99.90
25214;DHT22;13160;51.834;4.706;2022-09-09T16:07:09;20.00;99.90
25214;DHT22;13160;51.834;4.706;2022-09-09T16:09:48;20.10;99.90
25214;DHT22;13160;51.834;4.706;2022-09-09T16:12:35;20.00;99.90
25214;DHT22;13160;51.834;4.706;2022-09-09T16:15:19;20.00;99.90
25214;DHT22;13160;51.834;4.706;2022-09-09T16:17:53;20.00;99.90
25214;DHT22;13160;51.834;4.706;2022-09-09T16:20:21;20.10;99.90
25214;DHT22;13160;51.834;4.706;2022-09-09T16:22:50;20.10;99.90
25214;DHT22;13160;51.834;4.706;2022-09-09T16:25:24;20.10;99.90
25214;DHT22;13160;51.834;4.706;2022-09-09T16:27:52;20.20;99.90
25214;DHT22;13160;51.834;4.706;2022-09-09T16:30:20;20.20;99.90
25214;DHT22;13160;51.834;4.706;2022-09-09T16:32:50;20.20;99.90
25214;DHT22;13160;51.834;4.706;2022-09-09T16:35:18;20.20;99.90
25214;DHT22;13160;51.834;4.706;2022-09-09T16:37:48;20.20;99.90
25214;DHT22;13160;51.834;4.706;2022-09-09T16:40:17;20.20;99.90
25214;DHT22;13160;51.834;4.706;2022-09-09T16:42:45;20.20;99.90
25214;DHT22;13160;51.834;4.706;2022-09-09T16:45:13;20.20;99.90
25214;DHT22;13160;51.834;4.706;2022-09-09T16:47:42;20.20;99.90
25214;DHT22;13160;51.834;4.706;2022-09-09T16:50:11;20.20;99.90
25214;DHT22;13160;51.834;4.706;2022-09-09T16:52:40;20.20;99.90
25214;DHT22;13160;51.834;4.706;2022-09-09T16:55:08;20.20;99.90
25214;DHT22;13160;51.834;4.706;2022-09-09T16:57:36;20.20;99.90
25214;DHT22;13160;51.834;4.706;2022-09-09T17:00:06;20.20;99.90
25214;DHT22;13160;51.834;4.706;2022-09-09T17:02:35;20.10;99.90
25214;DHT22;13160;51.834;4.706;2022-09-09T17:05:04;20.10;99.90
25214;DHT22;13160;51.834;4.706;2022-09-09T17:07:34;20.10;99.90
25214;DHT22;13160;51.834;4.706;2022-09-09T17:10:03;20.00;99.90
25214;DHT22;13160;51.834;4.706;2022-09-09T17:12:43;20.00;99.90
25214;DHT22;13160;51.834;4.706;2022-09-09T17:15:12;19.90;99.90
25214;DHT22;13160;51.834;4.706;2022-09-09T17:17:50;19.90;99.90
25214;DHT22;13160;51.834;4.706;2022-09-09T17:20:21;19.90;99.90
25214;DHT22;13160;51.834;4.706;2022-09-09T17:22:51;19.80;99.90
25214;DHT22;13160;51.834;4.706;2022-09-09T17:25:20;19.80;99.90
25214;DHT22;13160;51.834;4.706;2022-09-09T17:27:49;19.80;99.90
25214;DHT22;13160;51.834;4.706;2022-09-09T17:30:35;19.70;99.90
25214;DHT22;13160;51.834;4.706;2022-09-09T17:33:04;19.70;99.90
25214;DHT22;13160;51.834;4.706;2022-09-09T17:35:35;19.70;99.90
25214;DHT22;13160;51.834;4.706;2022-09-09T17:38:15;19.70;99.90
25214;DHT22;13160;51.834;4.706;2022-09-09T17:41:00;19.70;99.90
25214;DHT22;13160;51.834;4.706;2022-09-09T17:43:36;19.70;99.90
25214;DHT22;13160;51.834;4.706;2022-09-09T17:46:13;19.60;99.90
25214;DHT22;13160;51.834;4.706;2022-09-09T17:48:54;19.60;99.90
25214;DHT22;13160;51.834;4.706;2022-09-09T17:51:55;19.60;99.90
25214;DHT22;13160;51.834;4.706;2022-09-09T17:58:05;19.50;99.90
25214;DHT22;13160;51.834;4.706;2022-09-09T18:00:39;19.50;99.90
25214;DHT22;13160;51.834;4.706;2022-09-09T18:03:11;19.40;99.90
25214;DHT22;13160;51.834;4.706;2022-09-09T18:05:42;19.50;99.90
25214;DHT22;13160;51.834;4.706;2022-09-09T18:11:15;19.40;99.90
25214;DHT22;13160;51.834;4.706;2022-09-09T18:13:49;19.30;99.90
25214;DHT22;13160;51.834;4.706;2022-09-09T18:16:21;19.30;99.90
25214;DHT22;13160;51.834;4.706;2022-09-09T18:19:03;19.30;99.90
25214;DHT22;13160;51.834;4.706;2022-09-09T18:21:33;19.30;99.90
25214;DHT22;13160;51.834;4.706;2022-09-09T18:24:06;19.30;99.90
25214;DHT22;13160;51.834;4.706;2022-09-09T18:27:07;19.30;99.90
25214;DHT22;13160;51.834;4.706;2022-09-09T18:30:57;19.20;99.90
